Time;durP1;ratioP1;P1;durP2;ratioP2;P2;SDS_P1;SDS_P2;PMS_P1;PMS_P2;Temp;Humidity;BMP_temperature;BMP_pressure;BME280_temperature;BME280_humidity;BME280_pressure;Samples;Min_cycle;Max_cycle;Signal;HPM_P1;HPM_P2
2022/08/30 00:02:41;;;;;;;18.23;12.88;;;;;;;21.54;66.85;99344.81;1796947;79;22623;-44
2022/08/30 00:05:08;;;;;;;14.55;11.97;;;;;;;21.44;67.08;99349.39;1756732;81;21590;-44
2022/08/30 00:07:37;;;;;;;17.43;13.47;;;;;;;21.45;67.14;99351.52;1757045;81;21221;-44
2022/08/30 00:10:07;;;;;;;16.97;13.40;;;;;;;21.40;67.36;99347.91;1756466;81;20910;-45
2022/08/30 00:12:34;;;;;;;17.92;14.10;;;;;;;21.31;67.71;99348.52;1756520;81;21578;-44
2022/08/30 00:15:03;;;;;;;21.37;12.60;;;;;;;21.27;67.95;99347.06;1756516;81;20930;-44
2022/08/30 00:17:30;;;;;;;17.35;13.15;;;;;;;21.24;68.23;99346.73;1756658;81;21579;-44
2022/08/30 00:19:57;;;;;;;16.50;12.80;;;;;;;21.27;68.28;99350.59;1756676;81;21138;-45
2022/08/30 00:22:24;;;;;;;14.33;12.18;;;;;;;21.31;68.20;99349.12;1756454;81;21005;-45
2022/08/30 00:24:51;;;;;;;17.80;13.75;;;;;;;21.27;68.32;99353.95;1756618;81;21065;-45
2022/08/30 00:27:18;;;;;;;16.62;13.88;;;;;;;21.25;68.43;99352.40;1756611;81;21037;-44
2022/08/30 00:29:45;;;;;;;18.05;13.50;;;;;;;21.21;68.40;99351.72;1756837;81;21084;-44
2022/08/30 00:32:12;;;;;;;14.78;12.07;;;;;;;21.19;68.66;99352.77;1756803;81;22731;-45
2022/08/30 00:34:39;;;;;;;15.93;12.78;;;;;;;21.20;68.80;99348.03;1756802;81;21069;-45
2022/08/30 00:37:06;;;;;;;15.43;11.95;;;;;;;21.23;68.95;99354.83;1756774;81;21064;-45
2022/08/30 00:39:33;;;;;;;16.62;12.98;;;;;;;21.27;68.92;99353.95;1756809;81;21027;-44
2022/08/30 00:42:00;;;;;;;18.60;12.20;;;;;;;21.24;69.02;99358.36;1756415;81;21017;-45
2022/08/30 00:44:27;;;;;;;16.70;12.03;;;;;;;21.21;69.10;99358.61;1756758;81;21471;-44
2022/08/30 00:46:54;;;;;;;20.65;12.43;;;;;;;21.20;69.19;99361.19;1756498;81;20973;-45
2022/08/30 00:49:23;;;;;;;18.45;12.50;;;;;;;21.20;69.06;99356.30;1756682;81;20957;-44
2022/08/30 00:51:50;;;;;;;18.23;12.68;;;;;;;21.17;69.11;99355.17;1756573;81;21032;-44
2022/08/30 00:54:17;;;;;;;15.55;13.72;;;;;;;21.12;69.19;99360.39;1756825;81;21037;-45
2022/08/30 00:56:46;;;;;;;15.68;11.55;;;;;;;21.06;69.25;99357.97;1756363;81;23173;-44
2022/08/30 00:59:13;;;;;;;14.65;11.78;;;;;;;21.06;69.41;99360.72;1756665;81;20954;-45
2022/08/30 01:01:39;;;;;;;16.85;12.50;;;;;;;21.07;69.39;99368.56;1756826;81;21554;-44
2022/08/30 01:04:07;;;;;;;16.05;13.43;;;;;;;21.10;69.19;99364.97;1756950;81;20969;-44
2022/08/30 01:06:38;;;;;;;15.88;13.08;;;;;;;21.03;69.32;99365.12;1740128;81;21032;-44
2022/08/30 01:09:05;;;;;;;16.32;13.43;;;;;;;20.93;69.46;99362.02;1757059;81;21333;-44
2022/08/30 01:11:34;;;;;;;19.20;12.65;;;;;;;20.85;69.62;99368.13;1757092;81;20953;-44
2022/08/30 01:14:01;;;;;;;16.77;12.33;;;;;;;20.79;69.78;99363.12;1756205;81;21012;-44
2022/08/30 01:16:34;;;;;;;16.60;12.50;;;;;;;20.81;69.64;99368.20;1756597;81;21487;-44
2022/08/30 01:19:01;;;;;;;16.65;13.00;;;;;;;20.80;69.75;99368.03;1756308;81;21048;-45
2022/08/30 01:21:47;;;;;;;17.60;14.15;;;;;;;20.75;69.87;99374.05;1756240;81;21918;-44
2022/08/30 01:24:14;;;;;;;18.02;14.07;;;;;;;20.64;70.12;99370.14;1756360;81;21767;-44
2022/08/30 01:26:41;;;;;;;17.02;13.22;;;;;;;20.61;70.31;99364.72;1756305;81;20957;-44
2022/08/30 01:29:12;;;;;;;15.90;12.33;;;;;;;20.60;70.49;99370.83;1756371;81;21008;-45
2022/08/30 01:31:39;;;;;;;17.30;13.80;;;;;;;20.62;70.54;99370.41;1756432;81;21525;-45
2022/08/30 01:34:06;;;;;;;20.23;14.05;;;;;;;20.63;70.59;99371.94;1756401;81;21946;-45
2022/08/30 01:36:35;;;;;;;16.70;13.15;;;;;;;20.61;70.68;99368.84;1756622;81;20997;-44
2022/08/30 01:39:02;;;;;;;15.10;12.07;;;;;;;20.57;70.85;99366.78;1756358;81;21028;-45
2022/08/30 01:41:33;;;;;;;15.05;11.85;;;;;;;20.58;71.01;99360.82;1756537;81;21049;-45
2022/08/30 01:44:04;;;;;;;15.60;12.65;;;;;;;20.62;70.89;99374.54;1756516;81;21037;-44
2022/08/30 01:46:39;;;;;;;17.32;12.78;;;;;;;20.62;70.68;99367.66;1756552;81;21206;-44
2022/08/30 01:49:08;;;;;;;18.73;13.98;;;;;;;20.55;70.81;99374.08;1755707;81;20961;-45
2022/08/30 01:51:35;;;;;;;15.20;12.58;;;;;;;20.50;70.96;99373.20;1756267;81;20914;-44
2022/08/30 01:54:02;;;;;;;14.50;12.73;;;;;;;20.48;71.13;99368.70;1756133;81;21057;-44
2022/08/30 01:56:29;;;;;;;15.13;13.43;;;;;;;20.49;71.23;99369.48;1756345;81;21558;-44
2022/08/30 01:58:56;;;;;;;15.23;13.60;;;;;;;20.50;71.23;99372.42;1756128;81;21146;-45
2022/08/30 02:01:25;;;;;;;18.42;13.90;;;;;;;20.45;71.31;99367.41;1753703;81;21040;-45
2022/08/30 02:03:55;;;;;;;17.77;13.50;;;;;;;20.41;71.26;99372.22;1742908;81;20962;-44
2022/08/30 02:06:22;;;;;;;15.18;13.40;;;;;;;20.39;71.20;99376.17;1743031;82;21073;-44
2022/08/30 02:08:49;;;;;;;16.48;12.93;;;;;;;20.38;71.12;99374.61;1743179;81;21545;-44
2022/08/30 02:11:17;;;;;;;14.35;12.85;;;;;;;20.34;71.02;99373.91;1742922;81;21205;-45
2022/08/30 02:13:45;;;;;;;18.20;14.53;;;;;;;20.22;71.27;99373.16;1743137;81;20895;-44
2022/08/30 02:16:16;;;;;;;15.38;12.98;;;;;;;20.14;71.92;99376.48;1743213;82;21505;-44
2022/08/30 02:18:44;;;;;;;15.83;12.53;;;;;;;20.04;72.55;99374.12;1743120;81;20946;-44
2022/08/30 02:21:11;;;;;;;16.07;12.95;;;;;;;20.04;72.80;99378.84;1743079;81;21018;-44
2022/08/30 02:23:39;;;;;;;16.67;13.95;;;;;;;20.07;73.26;99384.27;1743014;81;21138;-44
2022/08/30 02:26:06;;;;;;;16.82;13.35;;;;;;;20.05;73.33;99381.75;1743002;82;20966;-44
2022/08/30 02:28:33;;;;;;;16.05;13.00;;;;;;;20.05;73.70;99391.37;1743072;82;20954;-44
2022/08/30 02:31:00;;;;;;;15.30;11.93;;;;;;;20.00;74.26;99392.65;1742849;81;21034;-45
2022/08/30 02:33:28;;;;;;;14.53;12.95;;;;;;;20.05;74.40;99399.05;1743071;81;21088;-44
2022/08/30 02:35:55;;;;;;;17.07;13.35;;;;;;;20.13;74.48;99396.34;1742749;82;22033;-45
2022/08/30 02:38:22;;;;;;;15.75;13.20;;;;;;;20.18;74.44;99395.86;1743075;82;21030;-45
2022/08/30 02:40:50;;;;;;;12.00;10.80;;;;;;;20.19;74.43;99400.14;1743069;82;21026;-45
2022/08/30 02:43:17;;;;;;;16.52;11.97;;;;;;;20.24;74.44;99400.25;1743016;82;21013;-45
2022/08/30 02:45:44;;;;;;;13.83;12.25;;;;;;;20.30;74.19;99410.38;1742961;81;21089;-44
2022/08/30 02:48:11;;;;;;;16.07;12.73;;;;;;;20.33;74.10;99401.27;1742996;81;21238;-45
2022/08/30 02:50:43;;;;;;;14.50;12.80;;;;;;;20.29;74.10;99404.67;1743089;82;20986;-44
2022/08/30 02:53:11;;;;;;;13.72;11.88;;;;;;;20.25;74.34;99408.09;1743053;81;20966;-44
2022/08/30 02:55:38;;;;;;;12.50;11.20;;;;;;;20.23;74.53;99413.27;1743200;82;20965;-44
2022/08/30 02:58:05;;;;;;;12.43;11.15;;;;;;;20.26;74.56;99409.66;1743102;82;21030;-44
2022/08/30 03:00:34;;;;;;;13.28;11.88;;;;;;;20.30;74.54;99411.77;1743150;82;21574;-44
2022/08/30 03:03:02;;;;;;;14.50;12.78;;;;;;;20.31;74.42;99414.70;1752123;81;21511;-44
2022/08/30 03:05:32;;;;;;;14.93;11.25;;;;;;;20.31;74.47;99417.45;1756279;81;20969;-45
2022/08/30 03:08:00;;;;;;;12.53;10.45;;;;;;;20.31;74.45;99420.20;1756140;81;21443;-44
2022/08/30 03:10:27;;;;;;;12.58;11.28;;;;;;;20.39;74.37;99427.71;1756228;81;21618;-45
2022/08/30 03:12:56;;;;;;;12.97;11.67;;;;;;;20.44;74.14;99425.84;1756680;81;21029;-45
2022/08/30 03:15:26;;;;;;;12.20;10.58;;;;;;;20.43;74.02;99422.91;1756069;81;21539;-44
2022/08/30 03:17:52;;;;;;;;;;;;;;;20.39;74.02;99421.61;1758870;81;21009;-45
2022/08/30 03:20:20;;;;;;;12.30;10.38;;;;;;;20.44;74.06;99412.08;1756222;81;20147;-44
2022/08/30 03:22:47;;;;;;;13.32;10.48;;;;;;;20.45;74.06;99418.36;1756712;81;21075;-45
2022/08/30 03:25:15;;;;;;;12.00;10.68;;;;;;;20.51;73.93;99416.07;1756200;81;21240;-44
2022/08/30 03:27:42;;;;;;;14.43;10.82;;;;;;;20.54;73.55;99426.23;1756670;81;21076;-44
2022/08/30 03:30:11;;;;;;;11.38;10.18;;;;;;;20.55;73.55;99428.38;1756491;81;21543;-44
2022/08/30 03:32:39;;;;;;;10.35;9.03;;;;;;;20.57;73.45;99428.16;1756699;81;20961;-45
2022/08/30 03:35:07;;;;;;;12.45;9.43;;;;;;;20.68;73.21;99427.31;1720300;83;21044;-44
2022/08/30 03:37:34;;;;;;;10.98;9.88;;;;;;;20.76;72.86;99430.11;1720469;83;21090;-45
2022/08/30 03:40:04;;;;;;;11.93;9.50;;;;;;;20.78;72.61;99429.66;1719991;83;21514;-45
2022/08/30 03:42:31;;;;;;;9.93;8.93;;;;;;;20.77;72.58;99433.02;1720742;83;20997;-45
2022/08/30 03:45:01;;;;;;;10.78;8.78;;;;;;;20.79;72.20;99436.73;1720114;83;21537;-44
2022/08/30 03:47:28;;;;;;;9.70;8.28;;;;;;;20.83;72.18;99439.59;1720463;83;21064;-44
2022/08/30 03:49:55;;;;;;;10.45;9.25;;;;;;;20.92;71.88;99448.64;1720161;83;21270;-44
2022/08/30 03:52:22;;;;;;;10.15;9.05;;;;;;;20.91;71.69;99451.84;1720150;83;21205;-45
2022/08/30 03:54:49;;;;;;;9.15;8.25;;;;;;;20.88;71.62;99453.46;1720340;83;21842;-44
2022/08/30 03:57:16;;;;;;;8.40;7.60;;;;;;;20.86;71.71;99460.02;1720257;83;21515;-44
2022/08/30 03:59:45;;;;;;;9.90;8.08;;;;;;;20.91;71.49;99457.36;1720254;83;21032;-44
2022/08/30 04:02:12;;;;;;;11.73;8.95;;;;;;;20.97;71.54;99463.90;1718986;83;22087;-45
2022/08/30 04:04:39;;;;;;;11.38;8.93;;;;;;;21.00;71.31;99466.59;1715047;83;21005;-45
2022/08/30 04:07:08;;;;;;;9.28;8.25;;;;;;;20.99;71.41;99467.80;1715062;83;21567;-44
2022/08/30 04:09:35;;;;;;;8.63;7.50;;;;;;;20.99;71.42;99467.80;1751195;81;20937;-44
2022/08/30 04:12:03;;;;;;;9.38;8.48;;;;;;;21.01;71.44;99470.89;1751083;82;21029;-44
2022/08/30 04:14:30;;;;;;;9.55;8.00;;;;;;;21.04;71.55;99469.27;1751031;82;22117;-45
2022/08/30 04:16:57;;;;;;;9.78;8.78;;;;;;;21.06;71.62;99467.63;1714648;83;21008;-45
2022/08/30 04:19:24;;;;;;;8.65;7.78;;;;;;;21.09;71.58;99468.17;1750879;82;20969;-44
2022/08/30 04:21:51;;;;;;;9.30;8.03;;;;;;;21.12;71.48;99471.44;1750849;82;21510;-44
2022/08/30 04:24:18;;;;;;;11.10;8.40;;;;;;;21.16;71.38;99468.03;1714769;83;21048;-44
2022/08/30 04:26:45;;;;;;;10.43;8.70;;;;;;;21.19;71.22;99467.79;1714936;83;21788;-45
2022/08/30 04:29:15;;;;;;;9.10;8.20;;;;;;;21.16;71.14;99462.52;1714723;83;21049;-45
2022/08/30 04:31:41;;;;;;;8.43;7.40;;;;;;;21.14;71.20;99470.45;1751110;81;21524;-45
2022/08/30 04:34:11;;;;;;;8.48;7.22;;;;;;;21.14;70.94;99473.81;1714686;83;21012;-45
2022/08/30 04:36:37;;;;;;;8.83;7.40;;;;;;;21.12;70.74;99468.69;1714806;83;21519;-44
2022/08/30 04:39:05;;;;;;;7.75;6.85;;;;;;;21.14;70.53;99464.94;1709728;83;21192;-45
2022/08/30 04:41:33;;;;;;;8.38;7.42;;;;;;;21.15;70.42;99460.98;1750752;82;21048;-45
2022/08/30 04:44:02;;;;;;;7.78;6.97;;;;;;;21.17;70.15;99454.42;1751043;82;20956;-45
2022/08/30 04:46:29;;;;;;;8.13;6.77;;;;;;;21.18;69.75;99455.98;1751109;82;20983;-44
2022/08/30 04:48:57;;;;;;;7.65;6.05;;;;;;;21.18;69.56;99455.98;1714968;83;21760;-45
2022/08/30 04:51:24;;;;;;;6.10;5.47;;;;;;;21.19;69.40;99452.02;1715011;83;23149;-45
2022/08/30 04:53:51;;;;;;;7.17;6.47;;;;;;;21.23;68.96;99453.31;1715013;83;20953;-45
2022/08/30 04:56:23;;;;;;;7.53;6.30;;;;;;;21.20;68.67;99463.83;1751116;81;20965;-45
2022/08/30 04:58:52;;;;;;;6.35;5.75;;;;;;;21.18;68.74;99462.88;1751173;82;21053;-44
2022/08/30 05:01:24;;;;;;;6.72;5.58;;;;;;;21.21;68.68;99456.48;1751006;82;21051;-45
2022/08/30 05:03:51;;;;;;;8.35;6.20;;;;;;;21.26;68.79;99456.58;1708937;83;21049;-45
2022/08/30 05:06:18;;;;;;;6.62;5.85;;;;;;;21.32;69.08;99458.23;1707239;84;20973;-45
2022/08/30 05:08:46;;;;;;;8.45;6.62;;;;;;;21.31;69.04;99457.45;1707100;84;20977;-45
2022/08/30 05:11:14;;;;;;;7.33;6.62;;;;;;;21.31;68.87;99454.70;1742985;82;21013;-45
2022/08/30 05:13:42;;;;;;;9.18;5.78;;;;;;;21.35;68.87;99457.39;1743209;82;21065;-45
2022/08/30 05:16:09;;;;;;;6.72;6.03;;;;;;;21.38;68.74;99455.14;1743011;81;21250;-45
2022/08/30 05:18:36;;;;;;;7.03;6.33;;;;;;;21.44;68.08;99458.34;1742994;81;21013;-45
2022/08/30 05:21:12;;;;;;;7.17;6.45;;;;;;;21.45;67.93;99457.72;1707147;84;21029;-45
2022/08/30 05:23:39;;;;;;;9.18;6.72;;;;;;;21.43;68.26;99457.39;1707032;84;21604;-44
2022/08/30 05:26:10;;;;;;;7.67;6.70;;;;;;;21.44;68.37;99454.81;1742855;82;21610;-45
2022/08/30 05:28:37;;;;;;;7.83;6.12;;;;;;;21.45;68.29;99460.47;1742953;81;21889;-45
2022/08/30 05:31:19;;;;;;;6.83;6.10;;;;;;;21.44;68.17;99448.69;1743142;82;21211;-45
2022/08/30 05:33:47;;;;;;;6.97;6.12;;;;;;;21.59;68.02;99463.67;1707546;83;20894;-45
2022/08/30 05:36:15;;;;;;;9.33;6.35;;;;;;;21.59;67.36;99459.53;1743087;81;20910;-45
2022/08/30 05:38:42;;;;;;;7.47;6.30;;;;;;;21.57;67.58;99456.45;1707424;84;21535;-45
2022/08/30 05:41:09;;;;;;;8.03;6.65;;;;;;;21.54;67.57;99449.64;1732542;82;21157;-45
2022/08/30 05:43:36;;;;;;;7.83;5.80;;;;;;;21.61;67.46;99454.38;1743222;81;21087;-45
2022/08/30 05:46:09;;;;;;;8.00;6.33;;;;;;;21.68;67.14;99463.87;1707129;84;21029;-44
2022/08/30 05:48:36;;;;;;;7.53;5.72;;;;;;;21.76;66.44;99467.81;1707240;84;21007;-45
2022/08/30 05:51:15;;;;;;;6.30;5.70;;;;;;;21.79;65.99;99458.06;1707193;84;21013;-45
2022/08/30 05:53:43;;;;;;;6.65;5.30;;;;;;;21.78;65.72;99457.91;1743074;81;21306;-45
2022/08/30 05:56:12;;;;;;;7.78;6.25;;;;;;;21.79;65.38;99464.18;1742843;82;20911;-45
2022/08/30 05:58:39;;;;;;;5.97;5.47;;;;;;;21.78;65.21;99464.81;1743221;82;21515;-45
2022/08/30 06:01:07;;;;;;;5.15;4.62;;;;;;;21.79;64.63;99458.06;1742790;82;20982;-45
2022/08/30 06:03:34;;;;;;;6.28;5.33;;;;;;;21.88;64.41;99456.84;1690146;83;21032;-45
2022/08/30 06:06:02;;;;;;;6.42;5.20;;;;;;;21.98;63.49;99464.11;1720086;83;23250;-45
2022/08/30 06:08:29;;;;;;;7.50;5.33;;;;;;;22.07;63.18;99464.26;1720073;83;21578;-45
2022/08/30 06:10:56;;;;;;;5.35;4.75;;;;;;;22.17;63.01;99464.44;1720221;83;20989;-45
2022/08/30 06:13:23;;;;;;;5.65;4.37;;;;;;;22.25;62.38;99476.84;1720330;83;21036;-45
2022/08/30 06:15:51;;;;;;;5.22;4.72;;;;;;;22.29;61.02;99469.23;1720341;83;21027;-45
2022/08/30 06:18:18;;;;;;;5.40;4.67;;;;;;;22.29;60.58;99465.86;1720337;83;21235;-45
2022/08/30 06:20:49;;;;;;;4.87;4.35;;;;;;;22.33;60.83;99475.42;1720177;83;21036;-45
2022/08/30 06:23:16;;;;;;;6.12;4.08;;;;;;;22.38;60.14;99474.89;1720185;83;20972;-45
2022/08/30 06:25:43;;;;;;;5.22;3.90;;;;;;;22.41;58.72;99468.52;1715123;83;21028;-44
2022/08/30 06:28:11;;;;;;;5.35;3.92;;;;;;;22.45;58.64;99467.20;1720130;83;21060;-45
2022/08/30 06:30:40;;;;;;;6.60;4.58;;;;;;;22.52;58.19;99473.13;1720480;83;21133;-45
2022/08/30 06:33:08;;;;;;;;;;;;;;;22.52;57.53;99469.75;1722898;83;21534;-44
2022/08/30 06:35:36;;;;;;;4.70;4.30;;;;;;;22.52;58.13;99475.88;1702622;84;20204;-45
2022/08/30 06:38:03;;;;;;;5.00;4.00;;;;;;;22.45;58.25;99478.86;1702401;84;21020;-44
2022/08/30 06:40:31;;;;;;;5.53;3.85;;;;;;;22.52;56.95;99478.64;1702338;84;21002;-44
2022/08/30 06:42:58;;;;;;;9.25;3.85;;;;;;;22.57;55.77;99480.09;1702289;84;21256;-45
2022/08/30 06:45:25;;;;;;;5.47;3.85;;;;;;;22.55;53.82;99472.27;1702335;84;21647;-45
2022/08/30 06:47:52;;;;;;;4.75;4.10;;;;;;;22.55;53.89;99487.46;1702310;84;21038;-45
2022/08/30 06:50:19;;;;;;;4.72;3.70;;;;;;;22.56;54.16;99482.72;1702157;84;21584;-45
2022/08/30 06:52:46;;;;;;;5.25;3.45;;;;;;;22.59;54.27;99475.70;1702088;84;21109;-45
2022/08/30 06:55:15;;;;;;;5.17;3.60;;;;;;;22.65;55.03;99479.48;1702261;84;21516;-45
2022/08/30 06:57:42;;;;;;;6.45;3.90;;;;;;;22.73;54.69;99480.85;1702094;84;21643;-45
2022/08/30 07:00:10;;;;;;;5.28;4.00;;;;;;;22.83;53.48;99483.92;1702064;84;20907;-45
2022/08/30 07:02:38;;;;;;;4.45;3.67;;;;;;;22.90;53.24;99487.84;1702231;84;21077;-45
2022/08/30 07:05:07;;;;;;;5.40;3.90;;;;;;;22.98;52.96;99487.65;1701985;84;21034;-45
2022/08/30 07:07:35;;;;;;;3.92;3.50;;;;;;;23.04;53.08;99486.67;1720243;83;21093;-45
2022/08/30 07:10:08;;;;;;;8.33;3.80;;;;;;;23.09;52.80;99495.03;1720062;83;21039;-45
2022/08/30 07:12:35;;;;;;;4.92;3.65;;;;;;;23.13;52.73;99496.47;1720172;83;20989;-45
2022/08/30 07:15:04;;;;;;;5.45;3.30;;;;;;;23.18;51.54;99499.30;1720490;83;21079;-45
2022/08/30 07:20:21;;;;;;;7.00;3.85;;;;;;;23.21;51.38;99501.17;1720185;83;21248;-45
2022/08/30 07:22:49;;;;;;;6.28;3.60;;;;;;;23.22;50.97;99498.58;1720054;83;21615;-45
2022/08/30 07:25:16;;;;;;;5.17;4.08;;;;;;;23.27;51.71;99507.11;1720095;83;20968;-45
2022/08/30 07:27:44;;;;;;;4.45;3.70;;;;;;;23.35;51.53;99504.27;1720279;83;21629;-45
2022/08/30 07:30:12;;;;;;;5.35;3.92;;;;;;;23.43;51.85;99499.92;1720203;83;21016;-45
2022/08/30 07:32:39;;;;;;;5.00;4.22;;;;;;;23.47;51.09;99509.69;1720241;83;21236;-45
2022/08/30 07:35:07;;;;;;;6.80;4.35;;;;;;;23.48;50.99;99501.53;1719889;83;21488;-45
2022/08/30 07:37:35;;;;;;;5.13;4.30;;;;;;;23.48;50.80;99504.30;1720438;83;20957;-45
2022/08/30 07:40:04;;;;;;;4.42;4.00;;;;;;;23.50;50.63;99499.11;1720275;83;21071;-45
2022/08/30 07:42:31;;;;;;;7.22;3.87;;;;;;;23.53;50.42;99500.97;1720949;83;21048;-45
2022/08/30 07:44:59;;;;;;;4.70;3.45;;;;;;;23.57;50.72;99501.66;1720155;83;23206;-45
2022/08/30 07:47:26;;;;;;;7.25;3.98;;;;;;;23.65;50.17;99509.89;1720350;83;20921;-45
2022/08/30 07:49:54;;;;;;;4.90;3.65;;;;;;;23.73;49.28;99509.82;1720344;83;21020;-45
2022/08/30 07:52:21;;;;;;;8.20;3.62;;;;;;;23.77;49.27;99511.86;1720249;83;21037;-45
2022/08/30 07:54:48;;;;;;;5.33;3.80;;;;;;;23.79;48.62;99513.59;1720385;83;21032;-45
2022/08/30 07:57:15;;;;;;;5.55;4.03;;;;;;;23.79;48.70;99513.59;1720292;83;21263;-45
2022/08/30 07:59:43;;;;;;;8.13;3.85;;;;;;;23.81;48.08;99515.92;1720005;83;21517;-45
2022/08/30 08:02:10;;;;;;;4.33;3.20;;;;;;;23.82;48.52;99507.15;1720089;83;21625;-45
2022/08/30 08:04:37;;;;;;;4.42;3.30;;;;;;;23.87;48.32;99499.52;1716543;83;21001;-45
2022/08/30 08:07:04;;;;;;;5.40;3.83;;;;;;;23.95;48.34;99502.21;1714731;83;21044;-45
2022/08/30 08:09:32;;;;;;;6.03;3.47;;;;;;;24.02;47.96;99500.58;1714690;83;21151;-45
2022/08/30 08:12:00;;;;;;;8.85;4.05;;;;;;;24.12;47.54;99504.98;1714796;83;20936;-44
2022/08/30 08:14:27;;;;;;;6.58;3.20;;;;;;;24.25;46.71;99499.59;1714591;83;21406;-44
2022/08/30 08:16:55;;;;;;;5.72;3.20;;;;;;;24.38;46.38;99497.41;1714688;83;20998;-44
2022/08/30 08:19:22;;;;;;;6.20;3.60;;;;;;;24.48;45.49;99501.19;1750873;82;21092;-45
2022/08/30 08:21:49;;;;;;;4.92;3.08;;;;;;;24.52;45.09;99495.51;1750986;82;21455;-45
2022/08/30 08:24:16;;;;;;;3.87;3.05;;;;;;;24.57;44.75;99499.87;1750895;82;21086;-45
2022/08/30 08:26:43;;;;;;;4.35;3.12;;;;;;;24.64;44.98;99499.59;1715010;83;21032;-45
2022/08/30 08:29:10;;;;;;;7.65;3.02;;;;;;;24.71;45.20;99504.73;1714891;83;20981;-45
2022/08/30 08:31:37;;;;;;;4.83;3.60;;;;;;;24.77;44.78;99510.64;1715106;83;21101;-45
2022/08/30 08:34:05;;;;;;;5.62;3.40;;;;;;;24.82;45.13;99501.73;1714824;83;23182;-45
2022/08/30 08:36:33;;;;;;;4.97;2.90;;;;;;;24.86;44.13;99506.53;1715015;83;20977;-45
2022/08/30 08:39:01;;;;;;;4.90;3.20;;;;;;;24.90;44.46;99499.48;1714962;83;21032;-45
2022/08/30 08:42:05;;;;;;;4.83;2.95;;;;;;;24.94;44.81;99498.73;1714956;83;21012;-45
2022/08/30 08:44:59;;;;;;;4.70;3.00;;;;;;;25.00;44.36;99497.71;1751224;81;21080;-45
2022/08/30 08:47:52;;;;;;;3.83;2.98;;;;;;;25.06;45.41;99496.52;1714314;82;21223;-45
2022/08/30 08:50:20;;;;;;;4.97;3.12;;;;;;;25.18;45.80;99503.96;1685170;85;21000;-45
2022/08/30 08:55:49;;;;;;;5.55;3.12;;;;;;;25.41;45.11;99490.98;1689397;85;21010;-45
2022/08/30 08:58:25;;;;;;;4.00;2.70;;;;;;;25.47;44.68;99500.23;1707525;84;21108;-44
2022/08/30 09:00:52;;;;;;;3.25;2.70;;;;;;;25.48;44.70;99504.56;1694765;84;21146;-45
2022/08/30 09:03:21;;;;;;;4.08;2.72;;;;;;;25.54;44.52;99492.25;1694557;84;21238;-44
2022/08/30 09:05:48;;;;;;;5.03;2.80;;;;;;;25.68;43.71;99490.93;1687016;83;21084;-45
2022/08/30 09:08:16;;;;;;;3.00;2.62;;;;;;;25.77;43.20;99499.28;1686815;85;21575;-45
2022/08/30 09:10:55;;;;;;;4.80;2.27;;;;;;;25.83;43.55;99491.90;1687157;85;21053;-45
2022/08/30 09:13:23;;;;;;;7.70;3.08;;;;;;;25.92;44.38;99488.52;1685615;85;21260;-45
2022/08/30 09:15:52;;;;;;;5.17;2.90;;;;;;;26.06;43.50;99487.14;1686875;85;21073;-45
2022/08/30 09:18:19;;;;;;;5.50;2.70;;;;;;;26.15;42.85;99490.55;1686869;85;21025;-45
2022/08/30 09:20:48;;;;;;;4.08;2.92;;;;;;;26.20;41.82;99491.32;1686808;85;21012;-45
2022/08/30 09:23:26;;;;;;;5.22;2.85;;;;;;;26.22;42.30;99496.62;1687181;85;21108;-45
2022/08/30 09:26:02;;;;;;;6.08;2.87;;;;;;;26.29;42.42;99495.52;1687029;85;21254;-45
2022/08/30 09:28:33;;;;;;;3.25;2.60;;;;;;;26.34;42.33;99496.30;1687233;85;21033;-45
2022/08/30 09:31:05;;;;;;;4.15;3.10;;;;;;;26.47;43.00;99489.20;1686907;85;21049;-45
2022/08/30 09:33:32;;;;;;;4.72;2.50;;;;;;;26.68;42.75;99486.23;1687260;85;21081;-45
2022/08/30 09:36:17;;;;;;;4.47;3.00;;;;;;;26.88;41.78;99492.72;1687050;85;21037;-45
2022/08/30 09:38:44;;;;;;;3.75;2.52;;;;;;;26.91;41.62;99492.42;1687008;85;21191;-44
2022/08/30 09:41:38;;;;;;;4.58;2.60;;;;;;;26.94;40.69;99492.25;1686805;85;21079;-45
2022/08/30 09:44:22;;;;;;;6.30;2.90;;;;;;;27.02;40.54;99496.24;1686958;85;21623;-45
2022/08/30 09:46:57;;;;;;;3.65;2.75;;;;;;;27.14;40.87;99490.34;1687203;85;21004;-45
2022/08/30 09:49:34;;;;;;;3.45;2.92;;;;;;;27.22;40.53;99481.19;1687349;85;21045;-45
2022/08/30 09:52:37;;;;;;;5.85;2.70;;;;;;;27.33;40.53;99487.64;1686951;85;21130;-45
2022/08/30 09:55:28;;;;;;;4.53;2.70;;;;;;;27.37;40.70;99491.03;1686926;85;20985;-45
2022/08/30 09:58:38;;;;;;;4.10;2.62;;;;;;;27.39;40.16;99482.22;1686792;85;21041;-45
2022/08/30 10:01:16;;;;;;;4.28;2.47;;;;;;;27.41;40.17;99482.50;1686774;85;21037;-44
2022/08/30 10:03:59;;;;;;;4.05;2.42;;;;;;;27.45;39.81;99478.95;1665228;85;21025;-45
2022/08/30 10:06:51;;;;;;;2.70;2.27;;;;;;;27.57;38.93;99484.94;1686885;85;21211;-45
2022/08/30 10:09:26;;;;;;;3.35;2.33;;;;;;;27.69;40.18;99484.57;1667210;85;20998;-45
2022/08/30 10:12:21;;;;;;;4.83;2.52;;;;;;;27.92;39.20;99475.45;1686924;85;21113;-45
2022/08/30 10:15:17;;;;;;;3.62;2.55;;;;;;;28.07;37.88;99477.05;1686853;85;22110;-45
2022/08/30 10:17:58;;;;;;;3.22;2.35;;;;;;;28.10;37.91;99478.88;1686991;85;21113;-45
2022/08/30 10:20:36;;;;;;;3.90;2.60;;;;;;;28.22;36.93;99470.16;1686813;85;21249;-45
2022/08/30 10:23:17;;;;;;;4.55;2.52;;;;;;;28.35;37.88;99472.67;1686718;85;21044;-45
2022/08/30 10:26:15;;;;;;;2.87;2.22;;;;;;;28.58;37.02;99476.64;1686914;85;20989;-45
2022/08/30 10:28:52;;;;;;;4.62;2.35;;;;;;;28.76;36.92;99470.28;1686791;85;21060;-45
2022/08/30 10:31:57;;;;;;;4.10;2.42;;;;;;;28.87;36.81;99471.11;1686776;85;21120;-45
2022/08/30 10:34:30;;;;;;;2.92;2.20;;;;;;;28.95;36.76;99466.05;1607264;89;21161;-45
2022/08/30 10:37:07;;;;;;;3.30;2.52;;;;;;;28.93;36.11;99461.59;1664097;85;21009;-45
2022/08/30 10:39:49;;;;;;;3.30;2.50;;;;;;;28.84;36.35;99465.88;1686442;84;20997;-45
2022/08/30 10:42:27;;;;;;;5.60;2.60;;;;;;;28.84;36.92;99470.06;1686682;85;21592;-45
2022/08/30 10:45:07;;;;;;;3.42;2.52;;;;;;;28.91;36.28;99466.87;1683817;85;21613;-45
2022/08/30 10:47:52;;;;;;;4.10;2.33;;;;;;;29.02;35.76;99466.91;1687187;85;21512;-45
2022/08/30 10:50:29;;;;;;;3.72;2.30;;;;;;;28.93;35.33;99460.19;1686942;85;20950;-45
2022/08/30 10:53:11;;;;;;;3.20;2.58;;;;;;;28.80;35.87;99454.77;1687042;85;21037;-45
2022/08/30 10:56:04;;;;;;;4.97;2.60;;;;;;;28.75;35.73;99453.42;1686947;85;21109;-45
2022/08/30 10:58:31;;;;;;;3.33;2.58;;;;;;;28.78;36.16;99455.86;1687098;85;21081;-45
2022/08/30 11:01:28;;;;;;;3.58;2.40;;;;;;;29.05;36.40;99450.61;1686957;85;21139;-45
2022/08/30 11:04:23;;;;;;;5.60;2.35;;;;;;;29.47;35.08;99451.03;1686312;85;21721;-45
2022/08/30 11:07:08;;;;;;;3.02;2.20;;;;;;;29.77;34.72;99446.11;1687008;85;21681;-45
2022/08/30 11:09:59;;;;;;;2.45;2.05;;;;;;;29.94;32.60;99439.35;1686533;85;21018;-45
2022/08/30 11:13:05;;;;;;;2.98;2.17;;;;;;;29.95;33.02;99448.66;1686814;85;21053;-45
2022/08/30 11:15:38;;;;;;;3.50;2.10;;;;;;;30.05;32.79;99441.66;1607227;89;21576;-45
2022/08/30 11:18:11;;;;;;;2.62;2.10;;;;;;;30.14;32.61;99444.30;1605396;88;21144;-45
2022/08/30 11:20:48;;;;;;;3.17;2.00;;;;;;;30.15;31.92;99438.09;1641902;85;21565;-45
2022/08/30 11:23:35;;;;;;;2.55;2.20;;;;;;;30.12;31.75;99435.63;1686660;84;21032;-45
2022/08/30 11:26:10;;;;;;;3.77;2.12;;;;;;;30.15;33.15;99436.69;1686761;85;21061;-45
2022/08/30 11:28:45;;;;;;;2.87;2.15;;;;;;;30.34;33.16;99438.55;1687244;85;21093;-45
2022/08/30 11:31:21;;;;;;;3.52;2.40;;;;;;;30.47;32.32;99429.94;1686789;85;20973;-45
2022/08/30 11:33:54;;;;;;;4.42;2.05;;;;;;;30.47;32.39;99431.33;1686013;85;21595;-45
2022/08/30 11:36:39;;;;;;;3.37;1.95;;;;;;;30.55;32.13;99429.63;1686750;85;21648;-45
2022/08/30 11:39:09;;;;;;;4.28;2.12;;;;;;;30.61;32.58;99429.68;1686975;85;21547;-45
2022/08/30 11:41:45;;;;;;;2.33;1.90;;;;;;;30.78;31.57;99432.64;1686843;85;21221;-45
2022/08/30 11:44:30;;;;;;;3.30;2.20;;;;;;;30.85;31.43;99424.55;1686771;85;20978;-45
2022/08/30 11:47:02;;;;;;;4.87;2.30;;;;;;;30.79;30.64;99433.52;1686990;85;20993;-45
2022/08/30 11:49:44;;;;;;;6.78;1.95;;;;;;;30.70;30.49;99418.94;1665968;85;21108;-45
2022/08/30 11:52:27;;;;;;;2.90;2.10;;;;;;;30.68;30.33;99415.88;1686761;85;21283;-45
2022/08/30 11:55:17;;;;;;;4.90;2.20;;;;;;;30.75;31.64;99418.22;1686889;85;23186;-45